CYWG

Winnipeg / James Armstrong Richardson International Airport

Winnipeg, Manitoba, Canada
METAR CYWG 211000Z 00000KT 15SM BKN056 13/13 A3011 RMK SC7 SLP201
Observed Flight Rules
Jul-21 @ 10:00 UTC (an hour ago) Visual Flight Rules
Visibility Clouds
15 miles
  • Broken at 5,600' AGL
Temperatures Readings
Current 13°C / 55°F
Dewpoint 13°C / 55°F
Humidity 100%
Altimeter 30.11" Hg
Pressure 1020.1 hPa
Elevation 239
METAR CYWG 211000Z 00000KT 15SM BKN056 13/13 A3011 RMK SC7 SLP201
Observed Flight Rules
Jul-21 @ 10:00 UTC
(an hour ago)
VFR
Clouds
  • Broken at 5,600' AGL
Temperature Dewpoint
13°C / 55°F 13°C / 55°F
Humidity Altimeter Pressure
100% 30.11" Hg 1020.1 hPa